sensor_id;sensor_type;location;lat;lon;timestamp;temperature;humidity
322;DHT22;148;51.480;7.208;2023-09-08T13:43:06;29.20;49.50
322;DHT22;148;51.480;7.208;2023-09-08T13:45:32;29.40;48.20
322;DHT22;148;51.480;7.208;2023-09-08T13:47:58;29.70;47.50
322;DHT22;148;51.480;7.208;2023-09-08T13:50:23;30.00;47.30
322;DHT22;148;51.480;7.208;2023-09-08T13:52:49;30.30;46.70
322;DHT22;148;51.480;7.208;2023-09-08T13:55:14;30.40;46.10
322;DHT22;148;51.480;7.208;2023-09-08T13:57:40;30.60;45.50
322;DHT22;148;51.480;7.208;2023-09-08T14:00:06;30.80;44.90
322;DHT22;148;51.480;7.208;2023-09-08T14:02:34;30.80;45.30
322;DHT22;148;51.480;7.208;2023-09-08T14:05:00;30.90;45.60
322;DHT22;148;51.480;7.208;2023-09-08T14:07:25;31.00;44.70
322;DHT22;148;51.480;7.208;2023-09-08T14:09:50;31.10;45.30
322;DHT22;148;51.480;7.208;2023-09-08T14:12:16;31.20;45.20
322;DHT22;148;51.480;7.208;2023-09-08T14:14:41;31.30;44.70
322;DHT22;148;51.480;7.208;2023-09-08T14:17:10;31.30;44.90
322;DHT22;148;51.480;7.208;2023-09-08T14:19:35;31.30;45.20
322;DHT22;148;51.480;7.208;2023-09-08T14:22:01;31.40;45.00
322;DHT22;148;51.480;7.208;2023-09-08T14:24:26;31.40;45.10
322;DHT22;148;51.480;7.208;2023-09-08T14:26:52;31.40;44.40
322;DHT22;148;51.480;7.208;2023-09-08T14:29:17;31.60;44.60
322;DHT22;148;51.480;7.208;2023-09-08T14:31:43;31.70;45.00
322;DHT22;148;51.480;7.208;2023-09-08T14:34:09;32.00;44.60
322;DHT22;148;51.480;7.208;2023-09-08T14:36:34;33.00;43.10
322;DHT22;148;51.480;7.208;2023-09-08T14:39:00;34.30;40.50
322;DHT22;148;51.480;7.208;2023-09-08T14:41:25;35.70;37.40
322;DHT22;148;51.480;7.208;2023-09-08T14:43:51;37.00;35.10
322;DHT22;148;51.480;7.208;2023-09-08T14:46:17;38.50;33.80
322;DHT22;148;51.480;7.208;2023-09-08T14:48:42;40.00;30.90
322;DHT22;148;51.480;7.208;2023-09-08T14:51:08;40.80;29.60
322;DHT22;148;51.480;7.208;2023-09-08T14:53:34;41.80;28.60
322;DHT22;148;51.480;7.208;2023-09-08T14:55:59;42.50;27.70
322;DHT22;148;51.480;7.208;2023-09-08T14:58:25;42.90;26.70
322;DHT22;148;51.480;7.208;2023-09-08T15:00:57;43.70;26.60
322;DHT22;148;51.480;7.208;2023-09-08T15:03:22;44.60;25.30
322;DHT22;148;51.480;7.208;2023-09-08T15:05:48;44.50;25.20
322;DHT22;148;51.480;7.208;2023-09-08T15:08:13;44.30;25.30
322;DHT22;148;51.480;7.208;2023-09-08T15:10:39;44.10;25.20
322;DHT22;148;51.480;7.208;2023-09-08T15:13:05;44.10;24.80
322;DHT22;148;51.480;7.208;2023-09-08T15:15:31;44.40;24.40
322;DHT22;148;51.480;7.208;2023-09-08T15:17:56;44.30;24.80
322;DHT22;148;51.480;7.208;2023-09-08T15:20:22;44.30;24.80
322;DHT22;148;51.480;7.208;2023-09-08T15:22:47;43.40;25.20
322;DHT22;148;51.480;7.208;2023-09-08T15:25:13;42.00;26.60
322;DHT22;148;51.480;7.208;2023-09-08T15:27:38;40.70;28.40
322;DHT22;148;51.480;7.208;2023-09-08T15:30:04;39.70;29.70
322;DHT22;148;51.480;7.208;2023-09-08T15:32:30;38.90;30.30
322;DHT22;148;51.480;7.208;2023-09-08T15:34:55;38.10;31.50
322;DHT22;148;51.480;7.208;2023-09-08T15:37:21;37.20;33.10
322;DHT22;148;51.480;7.208;2023-09-08T15:39:46;36.40;34.70
322;DHT22;148;51.480;7.208;2023-09-08T15:42:12;35.80;35.70
322;DHT22;148;51.480;7.208;2023-09-08T15:44:38;35.30;36.20
322;DHT22;148;51.480;7.208;2023-09-08T15:47:03;34.90;37.00
322;DHT22;148;51.480;7.208;2023-09-08T15:49:29;34.40;38.00
322;DHT22;148;51.480;7.208;2023-09-08T15:51:54;34.10;38.60
322;DHT22;148;51.480;7.208;2023-09-08T15:54:20;33.90;39.20
322;DHT22;148;51.480;7.208;2023-09-08T15:56:46;33.80;39.60
322;DHT22;148;51.480;7.208;2023-09-08T15:59:13;33.60;39.70
322;DHT22;148;51.480;7.208;2023-09-08T16:01:39;33.50;40.10
322;DHT22;148;51.480;7.208;2023-09-08T16:04:05;33.50;40.40
322;DHT22;148;51.480;7.208;2023-09-08T16:06:38;33.30;41.00
322;DHT22;148;51.480;7.208;2023-09-08T16:09:04;33.90;40.10
322;DHT22;148;51.480;7.208;2023-09-08T16:11:31;35.40;37.90
322;DHT22;148;51.480;7.208;2023-09-08T16:13:57;36.80;36.10
322;DHT22;148;51.480;7.208;2023-09-08T16:16:23;38.10;33.70
322;DHT22;148;51.480;7.208;2023-09-08T16:18:48;39.20;32.30
322;DHT22;148;51.480;7.208;2023-09-08T16:21:14;40.10;31.00
322;DHT22;148;51.480;7.208;2023-09-08T16:23:39;40.60;30.20
322;DHT22;148;51.480;7.208;2023-09-08T16:26:05;41.30;29.30
322;DHT22;148;51.480;7.208;2023-09-08T16:28:31;41.90;28.40
322;DHT22;148;51.480;7.208;2023-09-08T16:31:01;42.60;27.70
322;DHT22;148;51.480;7.208;2023-09-08T16:33:28;43.20;27.30
322;DHT22;148;51.480;7.208;2023-09-08T16:35:54;43.60;27.00
322;DHT22;148;51.480;7.208;2023-09-08T16:38:19;43.10;27.50
322;DHT22;148;51.480;7.208;2023-09-08T16:40:45;42.20;28.20
322;DHT22;148;51.480;7.208;2023-09-08T16:43:11;41.00;29.40
322;DHT22;148;51.480;7.208;2023-09-08T16:45:36;39.60;31.00
322;DHT22;148;51.480;7.208;2023-09-08T16:48:02;38.60;32.20
322;DHT22;148;51.480;7.208;2023-09-08T16:50:28;37.70;33.80
322;DHT22;148;51.480;7.208;2023-09-08T16:52:54;36.90;34.80
322;DHT22;148;51.480;7.208;2023-09-08T16:55:20;36.20;36.20
322;DHT22;148;51.480;7.208;2023-09-08T16:57:45;35.50;37.60
322;DHT22;148;51.480;7.208;2023-09-08T17:00:12;35.00;38.20
322;DHT22;148;51.480;7.208;2023-09-08T17:02:38;34.60;39.00
322;DHT22;148;51.480;7.208;2023-09-08T17:05:04;34.30;39.70
322;DHT22;148;51.480;7.208;2023-09-08T17:07:30;34.10;40.80
322;DHT22;148;51.480;7.208;2023-09-08T17:09:55;33.90;41.30
322;DHT22;148;51.480;7.208;2023-09-08T17:12:21;33.80;41.60
322;DHT22;148;51.480;7.208;2023-09-08T17:14:47;33.60;42.30
322;DHT22;148;51.480;7.208;2023-09-08T17:17:13;33.40;42.50
322;DHT22;148;51.480;7.208;2023-09-08T17:19:39;33.30;42.70
322;DHT22;148;51.480;7.208;2023-09-08T17:22:04;33.10;43.20
322;DHT22;148;51.480;7.208;2023-09-08T17:24:31;33.00;43.90
322;DHT22;148;51.480;7.208;2023-09-08T17:26:57;32.90;44.50
322;DHT22;148;51.480;7.208;2023-09-08T17:29:23;32.70;44.90
322;DHT22;148;51.480;7.208;2023-09-08T17:31:48;32.60;45.50
322;DHT22;148;51.480;7.208;2023-09-08T17:34:17;32.40;46.00
322;DHT22;148;51.480;7.208;2023-09-08T17:36:45;32.20;46.80
322;DHT22;148;51.480;7.208;2023-09-08T17:39:11;32.00;47.00
322;DHT22;148;51.480;7.208;2023-09-08T17:41:37;31.80;47.60
322;DHT22;148;51.480;7.208;2023-09-08T17:44:02;31.70;48.40
322;DHT22;148;51.480;7.208;2023-09-08T17:46:28;31.50;49.00
322;DHT22;148;51.480;7.208;2023-09-08T17:48:53;31.40;49.60
322;DHT22;148;51.480;7.208;2023-09-08T17:51:19;31.30;50.00
322;DHT22;148;51.480;7.208;2023-09-08T17:53:46;31.20;50.70
322;DHT22;148;51.480;7.208;2023-09-08T17:56:12;31.10;50.80
322;DHT22;148;51.480;7.208;2023-09-08T17:58:38;31.00;51.30
322;DHT22;148;51.480;7.208;2023-09-08T18:01:03;31.00;52.00
322;DHT22;148;51.480;7.208;2023-09-08T18:03:29;31.00;52.10
322;DHT22;148;51.480;7.208;2023-09-08T18:05:54;30.90;52.40
322;DHT22;148;51.480;7.208;2023-09-08T18:08:20;30.80;52.40
322;DHT22;148;51.480;7.208;2023-09-08T18:10:46;30.80;52.60
322;DHT22;148;51.480;7.208;2023-09-08T18:13:12;30.60;53.00
322;DHT22;148;51.480;7.208;2023-09-08T18:15:39;30.40;53.60
322;DHT22;148;51.480;7.208;2023-09-08T18:18:05;30.20;54.30
322;DHT22;148;51.480;7.208;2023-09-08T18:20:33;30.10;54.90
322;DHT22;148;51.480;7.208;2023-09-08T18:22:59;29.90;55.50
322;DHT22;148;51.480;7.208;2023-09-08T18:25:24;29.90;55.90
322;DHT22;148;51.480;7.208;2023-09-08T18:27:50;29.80;56.00
322;DHT22;148;51.480;7.208;2023-09-08T18:30:16;29.80;57.80
322;DHT22;148;51.480;7.208;2023-09-08T18:32:42;29.80;56.40
322;DHT22;148;51.480;7.208;2023-09-08T18:35:09;29.70;56.30
322;DHT22;148;51.480;7.208;2023-09-08T18:37:34;29.70;56.20
322;DHT22;148;51.480;7.208;2023-09-08T18:40:00;29.60;56.60
322;DHT22;148;51.480;7.208;2023-09-08T18:42:25;29.50;57.00
322;DHT22;148;51.480;7.208;2023-09-08T18:44:51;29.50;57.10
322;DHT22;148;51.480;7.208;2023-09-08T18:47:16;29.40;57.40
322;DHT22;148;51.480;7.208;2023-09-08T18:49:43;29.30;57.60
322;DHT22;148;51.480;7.208;2023-09-08T18:52:08;29.30;57.80
322;DHT22;148;51.480;7.208;2023-09-08T18:54:35;29.20;57.90
322;DHT22;148;51.480;7.208;2023-09-08T18:57:00;29.10;58.30
322;DHT22;148;51.480;7.208;2023-09-08T18:59:27;29.00;58.60
322;DHT22;148;51.480;7.208;2023-09-08T19:01:53;29.00;59.30
322;DHT22;148;51.480;7.208;2023-09-08T19:04:19;28.90;59.50
322;DHT22;148;51.480;7.208;2023-09-08T19:06:45;28.80;59.90
322;DHT22;148;51.480;7.208;2023-09-08T19:09:11;28.60;60.60
322;DHT22;148;51.480;7.208;2023-09-08T19:11:37;28.50;60.90
322;DHT22;148;51.480;7.208;2023-09-08T19:14:02;28.30;61.40
322;DHT22;148;51.480;7.208;2023-09-08T19:16:29;28.20;61.90
322;DHT22;148;51.480;7.208;2023-09-08T19:18:55;28.20;62.30
322;DHT22;148;51.480;7.208;2023-09-08T19:21:20;28.10;62.60
322;DHT22;148;51.480;7.208;2023-09-08T19:23:46;28.00;62.90
322;DHT22;148;51.480;7.208;2023-09-08T19:26:12;28.00;63.10
322;DHT22;148;51.480;7.208;2023-09-08T19:28:38;28.00;63.10
322;DHT22;148;51.480;7.208;2023-09-08T19:31:04;27.90;63.00
322;DHT22;148;51.480;7.208;2023-09-08T19:33:29;27.90;62.90
322;DHT22;148;51.480;7.208;2023-09-08T19:35:55;27.90;62.70
322;DHT22;148;51.480;7.208;2023-09-08T19:38:21;27.80;62.90
322;DHT22;148;51.480;7.208;2023-09-08T19:40:47;27.70;63.00
322;DHT22;148;51.480;7.208;2023-09-08T19:43:13;27.60;63.20
322;DHT22;148;51.480;7.208;2023-09-08T19:45:39;27.60;63.40
322;DHT22;148;51.480;7.208;2023-09-08T19:48:05;27.60;63.20
322;DHT22;148;51.480;7.208;2023-09-08T19:50:31;27.60;63.40
322;DHT22;148;51.480;7.208;2023-09-08T19:52:57;27.50;63.50
322;DHT22;148;51.480;7.208;2023-09-08T19:55:22;27.50;63.40
322;DHT22;148;51.480;7.208;2023-09-08T19:57:48;27.50;63.10
322;DHT22;148;51.480;7.208;2023-09-08T20:00:15;27.50;63.30
322;DHT22;148;51.480;7.208;2023-09-08T20:02:42;27.50;63.30
322;DHT22;148;51.480;7.208;2023-09-08T20:05:08;27.50;63.30
322;DHT22;148;51.480;7.208;2023-09-08T20:07:34;27.50;63.50
322;DHT22;148;51.480;7.208;2023-09-08T20:09:59;27.40;63.30
322;DHT22;148;51.480;7.208;2023-09-08T20:12:25;27.40;63.20
322;DHT22;148;51.480;7.208;2023-09-08T20:14:50;27.40;63.10
322;DHT22;148;51.480;7.208;2023-09-08T20:17:17;27.40;63.40
322;DHT22;148;51.480;7.208;2023-09-08T20:19:43;27.40;63.50
322;DHT22;148;51.480;7.208;2023-09-08T20:22:09;27.30;63.20
322;DHT22;148;51.480;7.208;2023-09-08T20:24:34;27.20;63.60
322;DHT22;148;51.480;7.208;2023-09-08T20:27:00;27.20;63.80
322;DHT22;148;51.480;7.208;2023-09-08T20:29:25;27.20;63.90
322;DHT22;148;51.480;7.208;2023-09-08T20:31:53;27.10;64.00
322;DHT22;148;51.480;7.208;2023-09-08T20:34:20;27.00;64.00
322;DHT22;148;51.480;7.208;2023-09-08T20:36:46;27.00;64.20
322;DHT22;148;51.480;7.208;2023-09-08T20:39:11;26.90;64.60
322;DHT22;148;51.480;7.208;2023-09-08T20:41:37;26.90;64.70
322;DHT22;148;51.480;7.208;2023-09-08T20:44:03;26.80;65.00
322;DHT22;148;51.480;7.208;2023-09-08T20:46:28;26.80;64.70
322;DHT22;148;51.480;7.208;2023-09-08T20:48:54;26.80;65.00
322;DHT22;148;51.480;7.208;2023-09-08T20:51:19;26.70;65.40
322;DHT22;148;51.480;7.208;2023-09-08T20:53:45;26.70;65.60
322;DHT22;148;51.480;7.208;2023-09-08T20:56:11;26.70;65.80
322;DHT22;148;51.480;7.208;2023-09-08T20:58:41;26.70;65.90
322;DHT22;148;51.480;7.208;2023-09-08T21:01:08;26.70;66.00
322;DHT22;148;51.480;7.208;2023-09-08T21:03:35;26.70;65.70
322;DHT22;148;51.480;7.208;2023-09-08T21:06:00;26.70;65.80
322;DHT22;148;51.480;7.208;2023-09-08T21:08:30;26.70;66.10
322;DHT22;148;51.480;7.208;2023-09-08T21:11:00;26.70;66.40
322;DHT22;148;51.480;7.208;2023-09-08T21:13:27;26.70;66.50
322;DHT22;148;51.480;7.208;2023-09-08T21:15:53;26.60;66.70
322;DHT22;148;51.480;7.208;2023-09-08T21:18:18;26.60;66.70
322;DHT22;148;51.480;7.208;2023-09-08T21:20:44;26.60;66.80
322;DHT22;148;51.480;7.208;2023-09-08T21:23:10;26.50;66.80
322;DHT22;148;51.480;7.208;2023-09-08T21:25:35;26.50;66.60
322;DHT22;148;51.480;7.208;2023-09-08T21:28:04;26.40;66.70
322;DHT22;148;51.480;7.208;2023-09-08T21:30:31;26.30;66.70
322;DHT22;148;51.480;7.208;2023-09-08T21:32:56;26.40;66.80
322;DHT22;148;51.480;7.208;2023-09-08T21:35:22;26.30;66.60
322;DHT22;148;51.480;7.208;2023-09-08T21:37:48;26.20;66.80
322;DHT22;148;51.480;7.208;2023-09-08T21:40:13;26.10;67.10
322;DHT22;148;51.480;7.208;2023-09-08T21:42:41;26.10;67.40
322;DHT22;148;51.480;7.208;2023-09-08T21:45:07;26.00;67.70
322;DHT22;148;51.480;7.208;2023-09-08T21:47:33;26.00;67.80
322;DHT22;148;51.480;7.208;2023-09-08T21:49:59;26.00;67.90
322;DHT22;148;51.480;7.208;2023-09-08T21:52:24;26.10;67.80
322;DHT22;148;51.480;7.208;2023-09-08T21:54:50;26.10;68.10
322;DHT22;148;51.480;7.208;2023-09-08T21:57:15;25.90;68.00
322;DHT22;148;51.480;7.208;2023-09-08T21:59:41;25.90;68.60
322;DHT22;148;51.480;7.208;2023-09-08T22:02:07;25.90;68.60
322;DHT22;148;51.480;7.208;2023-09-08T22:04:33;25.80;69.00
322;DHT22;148;51.480;7.208;2023-09-08T22:06:59;25.80;69.10
322;DHT22;148;51.480;7.208;2023-09-08T22:09:24;25.90;69.00
322;DHT22;148;51.480;7.208;2023-09-08T22:11:50;25.90;69.10
322;DHT22;148;51.480;7.208;2023-09-08T22:14:16;25.90;69.10
322;DHT22;148;51.480;7.208;2023-09-08T22:16:42;25.80;69.40
322;DHT22;148;51.480;7.208;2023-09-08T22:19:10;25.80;69.50
322;DHT22;148;51.480;7.208;2023-09-08T22:21:35;25.80;69.50
322;DHT22;148;51.480;7.208;2023-09-08T22:24:01;25.80;69.40
322;DHT22;148;51.480;7.208;2023-09-08T22:26:29;25.70;69.60
322;DHT22;148;51.480;7.208;2023-09-08T22:28:55;25.80;69.50
322;DHT22;148;51.480;7.208;2023-09-08T22:31:20;25.80;69.40
322;DHT22;148;51.480;7.208;2023-09-08T22:33:47;25.80;69.30
322;DHT22;148;51.480;7.208;2023-09-08T22:36:13;25.80;69.20
322;DHT22;148;51.480;7.208;2023-09-08T22:38:38;25.80;69.00
322;DHT22;148;51.480;7.208;2023-09-08T22:41:04;25.80;68.70
322;DHT22;148;51.480;7.208;2023-09-08T22:43:29;25.80;68.20
322;DHT22;148;51.480;7.208;2023-09-08T22:45:55;25.80;67.90
322;DHT22;148;51.480;7.208;2023-09-08T22:48:21;25.80;67.80
322;DHT22;148;51.480;7.208;2023-09-08T22:50:48;25.80;67.70
322;DHT22;148;51.480;7.208;2023-09-08T22:53:15;25.80;67.70
322;DHT22;148;51.480;7.208;2023-09-08T22:55:41;25.70;67.30
322;DHT22;148;51.480;7.208;2023-09-08T22:58:06;25.70;67.10
322;DHT22;148;51.480;7.208;2023-09-08T23:00:33;25.70;67.10
322;DHT22;148;51.480;7.208;2023-09-08T23:02:59;25.60;67.00
322;DHT22;148;51.480;7.208;2023-09-08T23:05:25;25.60;66.80
322;DHT22;148;51.480;7.208;2023-09-08T23:07:50;25.60;66.50
322;DHT22;148;51.480;7.208;2023-09-08T23:10:16;25.60;66.30
322;DHT22;148;51.480;7.208;2023-09-08T23:12:42;25.60;66.30
322;DHT22;148;51.480;7.208;2023-09-08T23:15:09;25.60;66.00
322;DHT22;148;51.480;7.208;2023-09-08T23:17:35;25.60;65.70
322;DHT22;148;51.480;7.208;2023-09-08T23:20:01;25.60;65.50
322;DHT22;148;51.480;7.208;2023-09-08T23:22:32;25.60;65.10
322;DHT22;148;51.480;7.208;2023-09-08T23:24:58;25.60;65.00
322;DHT22;148;51.480;7.208;2023-09-08T23:27:23;25.60;64.50
322;DHT22;148;51.480;7.208;2023-09-08T23:29:50;25.50;64.40
322;DHT22;148;51.480;7.208;2023-09-08T23:32:16;25.50;64.20
322;DHT22;148;51.480;7.208;2023-09-08T23:34:42;25.40;64.10
322;DHT22;148;51.480;7.208;2023-09-08T23:37:07;25.40;64.00
